This is the latest recevied weather packets stored in our database for station/object N2XP-2. If no packets are shown the sender has not sent any weather packets the latest 10 day(s).
| Time | Temp. | Humidity | Pressure | Rain* | Wind** | Luminosity | Snow |
|---|---|---|---|---|---|---|---|
| 1777647513 | 15.56° C | 60% | 1013.4 hPa | 0 mm | 0.45 m/s, 339° | - | - |
| 1777647478 | 15.56° C | 61% | 1013.4 hPa | 0 mm | 0.45 m/s, 260° | - | - |
| 1777647472 | 15.56° C | 61% | 1013.4 hPa | 0 mm | 0.89 m/s, 349° | - | - |
| 1777647380 | 15.56° C | 60% | 1013.4 hPa | 0 mm | 0.45 m/s, 339° | - | - |
| 1777647128 | 15.56° C | 61% | 1013.4 hPa | 0 mm | 0 m/s | - | - |
| 1777647081 | 15.56° C | 61% | 1013.4 hPa | 0 mm | 0 m/s | - | - |
| 1777646845 | 15.56° C | 61% | 1013.4 hPa | 0 mm | 0.45 m/s, 250° | - | - |
| 1777646777 | 15.56° C | 61% | 1013.4 hPa | 0 mm | 0.45 m/s, 250° | - | - |
| 1777646315 | 15.56° C | 61% | 1013.4 hPa | 0 mm | 0.45 m/s, 260° | - | - |
| 1777646181 | 15.56° C | 61% | 1013.4 hPa | 0 mm | 0.45 m/s, 260° | - | - |
| 1777645939 | 15.56° C | 61% | 1013.4 hPa | 0 mm | 0.89 m/s, 349° | - | - |
| 1777645876 | 15.56° C | 61% | 1013.4 hPa | 0 mm | 0.89 m/s, 349° | - | - |
| 1777645689 | 15° C | 62% | 1013.3 hPa | 0 mm | 0 m/s | - | - |
| 1777645577 | 15° C | 62% | 1013.3 hPa | 0 mm | 0 m/s | - | - |
| 1777645552 | 14.44° C | 64% | 1013.4 hPa | 0 mm | 0.45 m/s, 267° | - | - |
| 1777645545 | 14.44° C | 66% | 1013.5 hPa | 0 mm | 0.89 m/s, 262° | - | - |
| 1777645412 | 15° C | 63% | 1013.4 hPa | 0 mm | 0 m/s | - | - |
| 1777645278 | 15° C | 63% | 1013.4 hPa | 0 mm | 0 m/s | - | - |
| 1777645107 | 15° C | 63% | 1013.5 hPa | 0 mm | 0.45 m/s, 307° | - | - |
| 1777644976 | 15° C | 63% | 1013.5 hPa | 0 mm | 0.45 m/s, 307° | - | - |
| 1777644768 | 14.44° C | 63% | 1013.4 hPa | 0 mm | 0.45 m/s, 308° | - | - |
| 1777644677 | 14.44° C | 63% | 1013.4 hPa | 0 mm | 0.45 m/s, 308° | - | - |
| 1777644546 | 14.44° C | 64% | 1013.4 hPa | 0 mm | 0 m/s | - | - |
| 1777644378 | 14.44° C | 64% | 1013.4 hPa | 0 mm | 0 m/s | - | - |
| 1777644165 | 14.44° C | 64% | 1013.4 hPa | 0 mm | 0.45 m/s, 267° | - | - |
* Rain latest hour (hover to see other rain measurements)
** Current wind speed in m/s (hover to see current wind gust speed)